Погода Ла-Пас-Сентрона 2 недели

Леон, Никарагуа

25 февраля-08 марта
  • 25февраля
    Сегодня
    +21°
    +34°
    Облачно с прояснениями
    ВремяПогодаТемператураВлажностьДавлениеВетер, м/сВероятность осадков
    00:00Ясно и безоблачно+25°C69 %755 мм6.1 м/с2 %
    03:00Ясно и безоблачно+23°C74 %755 мм5.2 м/с2 %
    06:00Ясно и безоблачно+22°C72 %756 мм4.9 м/с2 %
    09:00Небольшая облачность+26°C50 %757 мм5.0 м/с2 %
    12:00Небольшая облачность+33°C28 %755 мм4.9 м/с2 %
    15:00Облачно с прояснениями+34°C28 %752 мм6.6 м/с2 %
    18:00Небольшая облачность+31°C37 %753 мм5.6 м/с2 %
    21:00Небольшая облачность+27°C42 %755 мм5.0 м/с2 %
  • 26февраля
    Понедельник
    +23°
    +36°
    Ясно и безоблачно
    ВремяПогодаТемператураВлажностьДавлениеВетер, м/сВероятность осадков
    00:00Небольшая облачность+25°C55 %755 мм4.7 м/с2 %
    03:00Ясно и безоблачно+23°C66 %754 мм4.1 м/с2 %
    06:00Ясно и безоблачно+21°C71 %755 мм4.0 м/с2 %
    09:00Ясно и безоблачно+27°C47 %756 мм6.2 м/с2 %
    12:00Ясно и безоблачно+33°C36 %754 мм5.4 м/с2 %
    15:00Ясно и безоблачно+36°C35 %752 мм5.9 м/с2 %
    18:00Ясно и безоблачно+30°C47 %752 мм5.3 м/с2 %
    21:00Ясно и безоблачно+28°C53 %753 мм6.8 м/с2 %
  • 27февраля
    Вторник
    +22°
    +36°
    Ясно и безоблачно
    ВремяПогодаТемператураВлажностьДавлениеВетер, м/сВероятность осадков
    00:00Ясно и безоблачно+26°C64 %754 мм6.3 м/с2 %
    03:00Ясно и безоблачно+25°C71 %753 мм5.7 м/с2 %
    06:00Ясно и безоблачно+24°C72 %753 мм5.5 м/с2 %
    09:00Ясно и безоблачно+28°C54 %755 мм5.9 м/с2 %
    12:00Ясно и безоблачно+33°C40 %753 мм7.1 м/с6 %
    15:00Ясно и безоблачно+36°C39 %751 мм6.4 м/с7 %
    18:00Ясно и безоблачно+31°C45 %751 мм5.5 м/с2 %
    21:00Ясно и безоблачно+28°C57 %752 мм6.2 м/с2 %
  • 28февраля
    Среда
    +23°
    +37°
    Ясно и безоблачно
    ВремяПогодаТемператураВлажностьДавлениеВетер, м/сВероятность осадков
    00:00Ясно и безоблачно+26°C70 %752 мм6.5 м/с2 %
    03:00Ясно и безоблачно+24°C74 %752 мм7.0 м/с2 %
    06:00Ясно и безоблачно+24°C76 %753 мм6.5 м/с2 %
    09:00Ясно и безоблачно+28°C61 %754 мм7.0 м/с2 %
    12:00Практически безоблачно+34°C42 %753 мм7.8 м/с3 %
    15:00Ясно и безоблачно+36°C39 %751 мм6.4 м/с6 %
    18:00Ясно и безоблачно+32°C47 %751 мм5.3 м/с5 %
    21:00Ясно и безоблачно+28°C60 %753 мм5.6 м/с2 %
Мы используем cookies
Соглашаюсь